If you wish to contribute or participate in the discussions about articles you are invited to join SKYbrary as a registered user

 Actions

Wick Airport

From SKYbrary Wiki

EGPC
Airport
ICAO: EGPC – IATA: WIC
Summary
Name Wick Airport
Region Europe
Territory United Kingdom GB.gif
Location Wick, Scotland
Serving Wick
Elevation 38.405 m
126 ft
126 ft38.405 m
Coordinates 58° 27' 29.13" N, 3° 5' 29.63" W
Runways
Designator Length Width Surface ROPS
8/26 1036 m3,398.95 ft
45 m147.638 ft
ASP /
13/31 1825 m5,987.533 ft
45 m147.638 ft
ASP /


METAR
Observation EGPC 232220Z AUTO 28003KT 9999 NCD 04/02 Q0998
Station Wick
Date/Time 23 September 2020 22:20:00
Wind direction 280°
Wind speed 03 kts
Lowest cloud amount no clouds detected
Temperature 4°C
Dew point 2°C
Humidity 86%
QNH 998 hPa
Weather condition n/a

Wick Airport

ICAO: EGPC IATA: WIC

Description

Wick Airport is located north of the small town of Wick in Caithness at the north-eastern extremity of the mainland of Scotland.

Climatology

Temperate Marine climate/Oceanic climate (Köppen climate classification Cfb). Moderately cool summer and comparatively warm winter with a temperature range of only 14°C57.2 °F
287.15 K
516.87 °R
. Prevailing south-westerly winds from the Atlantic Ocean.

Maps

Terrain

Loading map...

Airport Layout

Loading map...


Accidents & Serious Incidents at or in vicinity of EGPC

None on SKYbrary